createdAt,value
2023-05-14T00:00:08.616Z,11.57
2023-05-14T00:02:39.102Z,13.05
2023-05-14T00:05:05.922Z,14.02
2023-05-14T00:07:32.593Z,10.35
2023-05-14T00:09:59.999Z,13.55
2023-05-14T00:12:30.114Z,11.00
2023-05-14T00:14:56.804Z,13.60
2023-05-14T00:17:25.815Z,12.15
2023-05-14T00:19:55.055Z,10.82
2023-05-14T00:22:24.021Z,13.05
2023-05-14T00:24:56.437Z,12.37
2023-05-14T00:27:22.900Z,10.18
2023-05-14T00:29:52.425Z,10.90
2023-05-14T00:32:21.612Z,12.57
2023-05-14T00:34:48.004Z,17.17
2023-05-14T00:37:17.409Z,12.63
2023-05-14T00:39:43.898Z,14.07
2023-05-14T00:42:10.353Z,11.18
2023-05-14T00:44:42.418Z,12.23
2023-05-14T00:47:09.037Z,11.68
2023-05-14T00:49:35.758Z,10.77
2023-05-14T00:52:06.034Z,9.45
2023-05-14T00:54:32.886Z,12.40
2023-05-14T00:57:00.142Z,16.02
2023-05-14T00:59:35.893Z,15.70
2023-05-14T01:02:02.404Z,11.23
2023-05-14T01:04:31.919Z,11.50
2023-05-14T01:07:25.941Z,10.13
2023-05-14T01:10:08.503Z,13.43
2023-05-14T01:12:57.320Z,14.15
2023-05-14T01:15:32.570Z,13.60
2023-05-14T01:18:10.820Z,9.50
2023-05-14T01:20:46.664Z,11.25
2023-05-14T01:23:13.039Z,15.68
2023-05-14T01:25:42.162Z,13.63
2023-05-14T01:28:26.481Z,11.67
2023-05-14T01:33:53.486Z,13.65
2023-05-14T01:36:20.207Z,10.18
2023-05-14T01:38:55.109Z,10.38
2023-05-14T01:41:22.997Z,15.10
2023-05-14T01:43:51.419Z,12.52
2023-05-14T01:46:20.635Z,14.95
2023-05-14T01:48:47.032Z,16.50
2023-05-14T01:51:18.521Z,18.98
2023-05-14T01:53:44.907Z,13.47
2023-05-14T01:56:11.315Z,10.07
2023-05-14T01:58:37.656Z,19.40
2023-05-14T02:01:04.266Z,17.50
2023-05-14T02:03:35.089Z,10.80
2023-05-14T02:08:46.647Z,13.65
2023-05-14T02:11:16.531Z,14.82
2023-05-14T02:13:43.751Z,11.88
2023-05-14T02:16:15.605Z,14.68
2023-05-14T02:18:42.005Z,13.20
2023-05-14T02:21:08.424Z,11.50
2023-05-14T02:23:42.275Z,15.45
2023-05-14T02:26:10.624Z,12.25
2023-05-14T02:28:47.142Z,12.48
2023-05-14T02:31:17.684Z,10.47
2023-05-14T02:33:47.957Z,17.17
2023-05-14T02:36:14.299Z,12.90
2023-05-14T02:38:44.514Z,12.80
2023-05-14T02:41:10.857Z,10.63
2023-05-14T02:43:37.234Z,13.77
2023-05-14T02:46:16.889Z,10.80
2023-05-14T02:48:45.197Z,15.43
2023-05-14T02:51:19.369Z,12.52
2023-05-14T02:53:46.267Z,13.98
2023-05-14T02:56:18.368Z,13.57
2023-05-14T02:58:44.713Z,14.82
2023-05-14T03:01:16.857Z,13.60
2023-05-14T03:03:47.690Z,13.48
2023-05-14T03:06:22.971Z,13.73
2023-05-14T03:08:49.296Z,10.33
2023-05-14T03:11:27.901Z,14.23
2023-05-14T03:13:54.271Z,13.15
2023-05-14T03:16:28.646Z,11.30
2023-05-14T03:18:55.117Z,15.27
2023-05-14T03:24:10.229Z,12.40
2023-05-14T03:26:40.324Z,12.52
2023-05-14T03:29:12.939Z,13.65
2023-05-14T03:31:43.665Z,14.02
2023-05-14T03:34:13.488Z,10.17
2023-05-14T03:36:43.020Z,15.07
2023-05-14T03:39:52.712Z,15.63
2023-05-14T03:42:17.910Z,11.60
2023-05-14T03:44:47.302Z,12.13
2023-05-14T03:47:16.074Z,15.93
2023-05-14T03:49:48.406Z,13.98
2023-05-14T03:52:14.798Z,15.05
2023-05-14T03:54:49.535Z,10.15
2023-05-14T03:57:15.911Z,17.38
2023-05-14T03:59:45.187Z,13.53
2023-05-14T04:02:14.421Z,12.98
2023-05-14T04:04:42.191Z,10.90
2023-05-14T04:07:11.516Z,10.35
2023-05-14T04:09:40.801Z,12.93
2023-05-14T04:12:15.616Z,12.53
2023-05-14T04:14:42.007Z,15.15
2023-05-14T04:17:08.595Z,10.55
2023-05-14T04:19:39.335Z,15.32
2023-05-14T04:22:06.295Z,10.65
2023-05-14T04:24:32.703Z,12.47
2023-05-14T04:27:00.646Z,12.35
2023-05-14T04:29:29.989Z,10.35
2023-05-14T04:31:56.353Z,12.38
2023-05-14T04:34:27.256Z,13.98
2023-05-14T04:36:53.585Z,13.27
2023-05-14T04:39:19.908Z,9.98
2023-05-14T04:41:49.311Z,13.52
2023-05-14T04:44:18.586Z,11.30
2023-05-14T04:46:44.905Z,10.88
2023-05-14T04:49:15.391Z,13.47
2023-05-14T04:51:41.747Z,10.63
2023-05-14T04:54:08.168Z,7.75
2023-05-14T04:56:43.447Z,8.70
2023-05-14T04:59:09.834Z,7.55
2023-05-14T05:04:22.252Z,7.82
2023-05-14T05:06:51.753Z,6.78
2023-05-14T05:09:25.707Z,8.27
2023-05-14T05:11:55.149Z,7.60
2023-05-14T05:14:44.777Z,7.63
2023-05-14T05:17:11.171Z,9.38
2023-05-14T05:19:43.560Z,9.13
2023-05-14T05:22:14.008Z,7.93
2023-05-14T05:24:40.421Z,7.68
2023-05-14T05:27:06.863Z,7.60
2023-05-14T05:29:36.535Z,9.93
2023-05-14T05:32:06.734Z,11.70
2023-05-14T05:34:39.412Z,10.05
2023-05-14T05:37:12.632Z,10.95
2023-05-14T05:39:39.577Z,6.67
2023-05-14T05:42:09.215Z,8.52
2023-05-14T05:44:35.712Z,6.90
2023-05-14T05:47:07.165Z,8.70
2023-05-14T05:49:33.659Z,8.45
2023-05-14T05:52:00.172Z,7.37
2023-05-14T05:54:27.188Z,10.30
2023-05-14T05:57:00.753Z,7.40
2023-05-14T05:59:31.034Z,8.05
2023-05-14T06:02:00.316Z,10.23
2023-05-14T06:04:26.767Z,6.83
2023-05-14T06:06:58.271Z,16.38
2023-05-14T06:09:24.678Z,7.15
2023-05-14T06:11:51.039Z,7.93
2023-05-14T06:14:18.739Z,7.85
2023-05-14T06:16:48.187Z,11.47
2023-05-14T06:19:14.767Z,8.52
2023-05-14T06:21:49.782Z,7.68
2023-05-14T06:24:16.516Z,7.65
2023-05-14T06:26:45.988Z,9.68
2023-05-14T06:29:15.542Z,8.43
2023-05-14T06:31:42.143Z,6.68
2023-05-14T06:34:12.257Z,6.63
2023-05-14T06:36:38.660Z,7.78
2023-05-14T06:39:05.202Z,10.48
2023-05-14T06:41:35.511Z,7.63
2023-05-14T06:44:04.827Z,9.73
2023-05-14T06:46:33.765Z,12.48
2023-05-14T06:49:00.621Z,7.80
2023-05-14T06:51:27.262Z,7.35
2023-05-14T06:54:07.707Z,8.20
2023-05-14T06:56:34.548Z,8.93
2023-05-14T06:59:06.782Z,8.73
2023-05-14T07:01:33.229Z,11.13
2023-05-14T07:03:59.636Z,7.55
2023-05-14T07:06:35.607Z,6.23
2023-05-14T07:09:02.071Z,9.05
2023-05-14T07:11:28.987Z,7.97
2023-05-14T07:13:57.849Z,6.85
2023-05-14T07:16:24.260Z,8.85
2023-05-14T07:21:38.520Z,19.15
2023-05-14T07:24:05.445Z,7.07
2023-05-14T07:26:31.848Z,6.60
2023-05-14T07:29:07.289Z,6.30
2023-05-14T07:31:33.851Z,5.67
2023-05-14T07:34:00.643Z,4.97
2023-05-14T07:36:31.477Z,10.20
2023-05-14T07:38:57.927Z,7.95
2023-05-14T07:41:27.836Z,6.63
2023-05-14T07:43:57.201Z,7.17
2023-05-14T07:46:31.316Z,10.07
2023-05-14T07:49:00.781Z,6.78
2023-05-14T07:51:33.779Z,8.48
2023-05-14T07:54:03.123Z,6.40
2023-05-14T07:56:29.452Z,8.13
2023-05-14T07:58:58.585Z,8.27
2023-05-14T08:01:25.091Z,6.53
2023-05-14T08:03:51.497Z,6.47
2023-05-14T08:06:22.813Z,8.57
2023-05-14T08:08:49.221Z,6.83
2023-05-14T08:11:15.655Z,7.97
2023-05-14T08:13:47.043Z,6.88
2023-05-14T08:16:13.418Z,9.80
2023-05-14T08:18:40.216Z,9.52
2023-05-14T08:21:09.153Z,7.17
2023-05-14T08:23:38.948Z,6.43
2023-05-14T08:26:05.406Z,7.15
2023-05-14T08:28:35.304Z,6.60
2023-05-14T08:31:01.688Z,6.90
2023-05-14T08:33:28.087Z,10.13
2023-05-14T08:35:58.725Z,6.75
2023-05-14T08:38:25.362Z,7.35
2023-05-14T08:41:12.760Z,6.13
2023-05-14T08:46:40.302Z,8.07
2023-05-14T08:49:31.945Z,8.65
2023-05-14T08:51:59.812Z,9.13
2023-05-14T08:54:29.987Z,9.18
2023-05-14T08:57:00.105Z,6.93
2023-05-14T08:59:29.838Z,6.87
2023-05-14T09:02:02.733Z,8.90
2023-05-14T09:04:31.400Z,9.40
2023-05-14T09:07:02.010Z,7.20
2023-05-14T09:09:31.130Z,8.30
2023-05-14T09:12:05.970Z,7.93
2023-05-14T09:20:00.146Z,8.85
2023-05-14T09:22:32.980Z,14.18
2023-05-14T09:25:05.288Z,8.00
2023-05-14T09:27:35.583Z,6.65
2023-05-14T09:30:14.576Z,10.18
2023-05-14T09:32:46.240Z,7.25
2023-05-14T09:35:19.399Z,7.80
2023-05-14T09:37:51.966Z,9.47
2023-05-14T09:40:23.838Z,7.43
2023-05-14T09:42:59.017Z,8.23
2023-05-14T09:45:25.459Z,5.38
2023-05-14T09:50:46.015Z,10.87
2023-05-14T09:53:15.366Z,9.65
2023-05-14T09:55:47.703Z,7.75
2023-05-14T09:58:24.331Z,8.30
2023-05-14T10:00:51.681Z,4.88
2023-05-14T10:06:14.050Z,6.53
2023-05-14T10:08:45.916Z,12.10
2023-05-14T10:11:37.224Z,9.95
2023-05-14T10:17:19.065Z,4.67
2023-05-14T10:19:54.096Z,6.65
2023-05-14T10:22:26.748Z,11.45
2023-05-14T10:24:59.676Z,6.53
2023-05-14T10:27:30.337Z,7.15
2023-05-14T10:30:00.510Z,8.23
2023-05-14T10:32:33.046Z,7.75
2023-05-14T10:35:04.280Z,8.07
2023-05-14T10:37:30.860Z,4.97
2023-05-14T10:39:57.138Z,8.23
2023-05-14T10:42:27.748Z,4.70
2023-05-14T10:44:58.749Z,9.65
2023-05-14T10:47:30.378Z,5.57
2023-05-14T10:49:58.841Z,8.95
2023-05-14T10:52:29.162Z,8.85
2023-05-14T10:57:52.605Z,4.55
2023-05-14T11:00:21.496Z,7.72
2023-05-14T11:02:48.030Z,5.45
2023-05-14T11:05:19.889Z,9.23
2023-05-14T11:07:50.270Z,5.97
2023-05-14T11:10:21.292Z,6.85
2023-05-14T11:12:52.022Z,5.88
2023-05-14T11:15:31.754Z,6.82
2023-05-14T11:17:58.160Z,6.07
2023-05-14T11:20:27.894Z,7.30
2023-05-14T11:22:57.228Z,4.97
2023-05-14T11:25:28.212Z,6.97
2023-05-14T11:28:00.725Z,10.30
2023-05-14T11:33:11.966Z,6.43
2023-05-14T11:35:46.486Z,6.75
2023-05-14T11:38:24.186Z,5.85
2023-05-14T11:43:38.702Z,5.35
2023-05-14T11:46:08.433Z,7.20
2023-05-14T11:48:34.985Z,5.47
2023-05-14T11:51:05.885Z,7.03
2023-05-14T11:53:32.454Z,7.13
2023-05-14T11:55:59.090Z,7.90
2023-05-14T11:58:29.042Z,5.83
2023-05-14T12:00:55.737Z,5.38
2023-05-14T12:06:11.124Z,10.48
2023-05-14T12:08:40.306Z,7.80
2023-05-14T12:11:06.998Z,6.40
2023-05-14T12:13:37.194Z,7.00
2023-05-14T12:16:06.709Z,4.63
2023-05-14T12:18:34.731Z,5.45
2023-05-14T12:21:08.369Z,5.97
2023-05-14T12:23:38.497Z,4.20
2023-05-14T12:26:10.889Z,3.50
2023-05-14T12:28:43.269Z,5.22
2023-05-14T12:31:12.788Z,7.15
2023-05-14T12:33:39.207Z,6.45
2023-05-14T12:39:03.437Z,5.65
2023-05-14T12:41:33.188Z,9.82
2023-05-14T12:44:00.154Z,6.13
2023-05-14T12:46:31.821Z,10.00
2023-05-14T12:49:00.633Z,7.17
2023-05-14T12:51:27.121Z,5.20
2023-05-14T12:54:07.795Z,4.65
2023-05-14T12:56:35.245Z,6.03
2023-05-14T12:59:07.644Z,7.20
2023-05-14T13:01:34.110Z,6.40
2023-05-14T13:04:04.807Z,6.82
2023-05-14T13:06:31.733Z,5.53
2023-05-14T13:09:07.483Z,7.35
2023-05-14T13:11:34.152Z,9.02
2023-05-14T13:14:02.249Z,8.90
2023-05-14T13:16:29.646Z,7.03
2023-05-14T13:18:59.474Z,7.30
2023-05-14T13:21:33.587Z,7.03
2023-05-14T13:24:03.339Z,4.20
2023-05-14T13:26:29.775Z,5.57
2023-05-14T13:29:02.184Z,6.00
2023-05-14T13:31:30.210Z,8.60
2023-05-14T13:34:01.961Z,7.13
2023-05-14T13:36:32.446Z,5.35
2023-05-14T13:39:03.001Z,3.37
2023-05-14T13:41:35.656Z,6.10
2023-05-14T13:44:06.126Z,9.27
2023-05-14T13:46:36.520Z,5.65
2023-05-14T13:49:08.062Z,4.55
2023-05-14T13:51:37.550Z,7.47
2023-05-14T13:54:12.095Z,6.90
2023-05-14T13:56:38.512Z,8.65
2023-05-14T13:59:04.937Z,4.68
2023-05-14T14:01:36.294Z,7.68
2023-05-14T14:04:04.245Z,4.60
2023-05-14T14:06:35.340Z,6.78
2023-05-14T14:09:05.296Z,8.13
2023-05-14T14:11:39.972Z,7.65
2023-05-14T14:14:12.465Z,9.35
2023-05-14T14:16:41.272Z,4.00
2023-05-14T14:19:10.750Z,6.07
2023-05-14T14:21:42.214Z,8.07
2023-05-14T14:24:22.505Z,4.82
2023-05-14T14:26:48.875Z,4.35
2023-05-14T14:29:17.985Z,4.77
2023-05-14T14:31:44.639Z,8.50
2023-05-14T14:34:14.649Z,8.38
2023-05-14T14:36:41.012Z,6.72
2023-05-14T14:39:07.356Z,7.50
2023-05-14T14:41:38.028Z,9.53
2023-05-14T14:44:05.496Z,4.05
2023-05-14T14:46:39.898Z,5.50
2023-05-14T14:49:09.792Z,3.65
2023-05-14T14:54:24.100Z,7.03
2023-05-14T14:56:53.760Z,3.90
2023-05-14T14:59:20.231Z,6.97
2023-05-14T15:01:49.734Z,7.25
2023-05-14T15:04:20.070Z,4.88
2023-05-14T15:06:50.494Z,7.70
2023-05-14T15:09:19.958Z,7.53
2023-05-14T15:11:47.129Z,5.55
2023-05-14T15:14:24.052Z,4.25
2023-05-14T15:16:52.856Z,7.15
2023-05-14T15:19:22.230Z,6.33
2023-05-14T15:21:48.656Z,5.55
2023-05-14T15:24:17.696Z,6.20
2023-05-14T15:26:46.232Z,6.80
2023-05-14T15:29:12.686Z,4.88
2023-05-14T15:31:45.228Z,4.23
2023-05-14T15:34:11.671Z,5.53
2023-05-14T15:36:38.078Z,5.40
2023-05-14T15:39:17.471Z,5.97
2023-05-14T15:41:43.912Z,6.03
2023-05-14T15:44:20.434Z,7.53
2023-05-14T15:46:51.805Z,6.85
2023-05-14T15:49:21.470Z,6.50
2023-05-14T15:51:55.365Z,5.95
2023-05-14T15:54:26.201Z,4.00
2023-05-14T15:56:53.657Z,6.67
2023-05-14T15:59:20.112Z,5.38
2023-05-14T16:01:46.572Z,7.93
2023-05-14T16:04:12.952Z,3.45
2023-05-14T16:07:04.166Z,3.42
2023-05-14T16:09:30.728Z,5.30
2023-05-14T16:11:57.235Z,5.28
2023-05-14T16:14:31.977Z,8.80
2023-05-14T16:16:58.445Z,3.75
2023-05-14T16:19:30.869Z,6.35
2023-05-14T16:21:57.257Z,6.00
2023-05-14T16:24:23.908Z,9.32
2023-05-14T16:26:52.660Z,9.27
2023-05-14T16:29:22.345Z,6.95
2023-05-14T16:31:48.809Z,8.68
2023-05-14T16:34:24.370Z,6.17
2023-05-14T16:36:50.890Z,7.13
2023-05-14T16:39:17.553Z,7.65
2023-05-14T16:41:44.019Z,9.25
2023-05-14T16:44:10.602Z,4.47
2023-05-14T16:46:37.042Z,6.37
2023-05-14T16:49:06.895Z,6.38
2023-05-14T16:51:33.559Z,4.90
2023-05-14T16:53:59.979Z,3.67
2023-05-14T16:56:39.680Z,8.27
2023-05-14T16:59:10.242Z,4.67
2023-05-14T17:01:41.764Z,6.22
2023-05-14T17:04:11.363Z,6.72
2023-05-14T17:06:40.764Z,8.00
2023-05-14T17:09:07.717Z,7.40
2023-05-14T17:14:21.022Z,8.25
2023-05-14T17:16:47.449Z,3.92
2023-05-14T17:19:13.926Z,7.32
2023-05-14T17:21:54.370Z,9.52
2023-05-14T17:24:26.805Z,11.47
2023-05-14T17:26:53.261Z,6.60
2023-05-14T17:29:19.697Z,6.43
2023-05-14T17:31:46.117Z,14.13
2023-05-14T17:34:12.613Z,9.02
2023-05-14T17:36:42.837Z,7.63
2023-05-14T17:39:19.736Z,6.57
2023-05-14T17:41:46.179Z,9.77
2023-05-14T17:44:15.945Z,9.27
2023-05-14T17:46:45.803Z,7.97
2023-05-14T17:49:15.659Z,6.23
2023-05-14T17:51:42.340Z,6.53
2023-05-14T17:54:12.619Z,7.43
2023-05-14T17:56:42.038Z,6.10
2023-05-14T17:59:11.206Z,10.43
2023-05-14T18:01:37.657Z,9.30
2023-05-14T18:04:14.869Z,7.15
2023-05-14T18:06:48.878Z,7.20
2023-05-14T18:09:18.098Z,7.93
2023-05-14T18:11:52.816Z,9.63
2023-05-14T18:14:24.158Z,7.53
2023-05-14T18:16:51.198Z,9.07
2023-05-14T18:19:19.922Z,10.02
2023-05-14T18:21:48.067Z,13.52
2023-05-14T18:24:18.731Z,7.07
2023-05-14T18:26:45.135Z,8.67
2023-05-14T18:29:11.597Z,8.15
2023-05-14T18:31:43.329Z,8.57
2023-05-14T18:34:09.732Z,9.18
2023-05-14T18:36:36.132Z,9.15
2023-05-14T18:39:10.932Z,7.67
2023-05-14T18:41:37.370Z,9.10
2023-05-14T18:44:03.795Z,8.93
2023-05-14T18:46:35.129Z,8.82
2023-05-14T18:49:01.570Z,8.25
2023-05-14T18:51:30.769Z,9.30
2023-05-14T18:54:00.983Z,5.22
2023-05-14T18:56:27.508Z,9.63
2023-05-14T18:58:57.410Z,8.05
2023-05-14T19:01:26.609Z,11.57
2023-05-14T19:04:00.517Z,4.40
2023-05-14T19:06:27.946Z,7.13
2023-05-14T19:08:54.378Z,8.15
2023-05-14T19:11:22.865Z,5.13
2023-05-14T19:13:52.109Z,5.75
2023-05-14T19:16:18.953Z,7.90
2023-05-14T19:18:45.652Z,5.80
2023-05-14T19:21:15.155Z,7.50
2023-05-14T19:23:41.716Z,6.85
2023-05-14T19:26:13.183Z,9.07
2023-05-14T19:28:39.843Z,6.53
2023-05-14T19:31:06.312Z,9.63
2023-05-14T19:33:33.080Z,9.02
2023-05-14T19:36:06.807Z,9.23
2023-05-14T19:38:39.277Z,7.10
2023-05-14T19:41:08.773Z,6.67
2023-05-14T19:43:58.936Z,6.07
2023-05-14T19:46:28.035Z,6.53
2023-05-14T19:48:54.501Z,10.05
2023-05-14T19:51:25.006Z,7.75
2023-05-14T19:53:54.516Z,5.03
2023-05-14T19:56:24.743Z,9.07
2023-05-14T19:58:55.193Z,9.90
2023-05-14T20:01:21.666Z,7.57
2023-05-14T20:03:51.174Z,9.65
2023-05-14T20:06:20.846Z,7.80
2023-05-14T20:08:47.312Z,7.32
2023-05-14T20:11:16.527Z,11.40
2023-05-14T20:13:45.796Z,11.68
2023-05-14T20:16:13.530Z,8.77
2023-05-14T20:18:46.151Z,8.87
2023-05-14T20:21:12.664Z,7.75
2023-05-14T20:23:42.292Z,9.48
2023-05-14T20:26:11.870Z,8.98
2023-05-14T20:28:38.226Z,7.60
2023-05-14T20:31:09.528Z,8.80
2023-05-14T20:33:36.057Z,6.47
2023-05-14T20:36:12.180Z,8.02
2023-05-14T20:38:38.596Z,8.32
2023-05-14T20:41:05.005Z,8.40
2023-05-14T20:43:34.472Z,6.87
2023-05-14T20:46:05.739Z,6.57
2023-05-14T20:48:38.564Z,8.27
2023-05-14T20:51:06.463Z,7.25
2023-05-14T20:53:35.669Z,9.50
2023-05-14T20:56:02.315Z,9.80
2023-05-14T20:58:31.727Z,8.40
2023-05-14T21:00:59.808Z,8.95
2023-05-14T21:03:27.053Z,8.60
2023-05-14T21:05:55.930Z,6.63
2023-05-14T21:08:26.065Z,6.40
2023-05-14T21:10:55.007Z,6.75
2023-05-14T21:13:21.377Z,7.55
2023-05-14T21:18:44.834Z,6.43
2023-05-14T21:21:17.613Z,7.47
2023-05-14T21:23:43.930Z,9.18
2023-05-14T21:26:10.351Z,8.90
2023-05-14T21:28:39.696Z,9.18
2023-05-14T21:31:08.871Z,9.65
2023-05-14T21:33:35.486Z,6.03
2023-05-14T21:36:08.828Z,11.15
2023-05-14T21:38:35.513Z,6.30
2023-05-14T21:41:07.508Z,7.38
2023-05-14T21:43:36.844Z,8.15
2023-05-14T21:46:05.807Z,7.30
2023-05-14T21:48:32.294Z,10.30
2023-05-14T21:50:58.763Z,7.72
2023-05-14T21:53:25.288Z,6.35
2023-05-14T21:58:38.351Z,9.03
2023-05-14T22:01:04.884Z,6.22
2023-05-14T22:03:31.392Z,7.00
2023-05-14T22:06:01.007Z,7.53
2023-05-14T22:08:30.956Z,7.47
2023-05-14T22:11:04.996Z,6.53
2023-05-14T22:13:31.344Z,7.78
2023-05-14T22:16:09.318Z,10.07
2023-05-14T22:18:40.105Z,8.75
2023-05-14T22:21:10.568Z,8.05
2023-05-14T22:23:37.465Z,5.87
2023-05-14T22:26:04.154Z,7.97
2023-05-14T22:28:33.585Z,10.07
2023-05-14T22:31:04.116Z,7.20
2023-05-14T22:36:19.469Z,7.27
2023-05-14T22:38:46.177Z,11.25
2023-05-14T22:41:12.640Z,8.15
2023-05-14T22:46:25.301Z,8.48
2023-05-14T22:48:51.765Z,11.23
2023-05-14T22:51:18.237Z,7.90
2023-05-14T22:53:45.342Z,8.93
2023-05-14T22:56:18.846Z,9.70
2023-05-14T22:58:46.401Z,8.07
2023-05-14T23:01:13.048Z,8.73
2023-05-14T23:03:42.267Z,7.93
2023-05-14T23:06:17.073Z,10.95
2023-05-14T23:08:47.675Z,8.75
2023-05-14T23:11:15.141Z,9.63
2023-05-14T23:13:48.652Z,11.97
2023-05-14T23:16:18.046Z,11.02
2023-05-14T23:18:47.232Z,9.05
2023-05-14T23:21:14.194Z,11.23
2023-05-14T23:26:26.785Z,12.20
2023-05-14T23:28:56.268Z,9.48
2023-05-14T23:31:22.986Z,10.98
2023-05-14T23:33:49.600Z,10.95
2023-05-14T23:36:18.882Z,12.40
2023-05-14T23:38:45.299Z,9.07
2023-05-14T23:41:21.670Z,14.10
2023-05-14T23:43:49.183Z,10.25
2023-05-14T23:46:18.353Z,9.52
2023-05-14T23:48:44.791Z,11.60
2023-05-14T23:51:11.444Z,10.30
2023-05-14T23:53:38.100Z,10.63
2023-05-14T23:56:04.608Z,10.75
2023-05-14T23:58:31.191Z,18.88
